Date,TemperatureHighF,TemperatureAvgF,TemperatureLowF,DewpointHighF,DewpointAvgF,DewpointLowF,HumidityHigh,HumidityAvg,HumidityLow,PressureMaxIn,PressureMinIn,WindSpeedMaxMPH,WindSpeedAvgMPH,GustSpeedMaxMPH,PrecipitationSumIn
2013-1-1,66,61,58,60,57,54,99,88,73,0.00,40.00,15,11,25,0.06
2013-1-2,70,61,56,61,57,53,98,88,72,0.00,40.00,10,7,19,0.04
2013-1-3,69,61,58,59,57,55,96,86,70,0.00,40.00,15,10,33,0.01
2013-1-4,65,60,57,56,55,53,95,83,66,0.00,40.00,16,10,28,0.01
2013-1-5,66,61,58,60,56,53,93,83,76,0.00,40.00,19,12,32,0.04
2013-1-6,69,62,59,61,57,54,98,84,70,0.00,40.00,16,8,30,0.04
2013-1-7,67,62,58,62,58,55,98,86,72,0.00,40.00,10,7,19,0.01
2013-1-8,67,62,59,60,57,55,94,86,74,0.00,40.00,9,4,16,0.07
2013-1-9,68,62,58,62,58,56,96,87,72,0.00,40.00,12,5,19,0.05
2013-1-10,71,61,54,63,56,52,99,86,57,0.00,40.00,9,4,16,0.05
2013-1-11,71,61,54,62,56,52,98,84,71,0.00,40.00,11,6,19,0.00
2013-1-12,69,61,54,61,56,50,98,86,71,0.00,40.00,10,4,14,0.00
2013-1-13,68,61,58,62,59,56,100,94,71,0.00,40.00,14,8,25,0.61
2013-1-14,69,61,55,66,58,54,100,92,62,0.00,40.00,6,1,13,0.83
2013-1-15,70,56,48,55,50,43,100,82,38,0.00,40.00,2,0,12,0.01
2013-1-16,69,58,52,58,54,50,100,89,57,0.00,40.00,5,1,12,0.04
2013-1-17,65,55,49,56,52,49,99,88,64,0.00,40.00,4,1,12,0.03
2013-1-18,66,56,51,59,53,47,100,90,63,0.00,40.00,7,2,19,0.03
2013-1-19,63,55,49,53,49,46,92,81,63,0.00,40.00,13,6,22,0.02
2013-1-20,71,57,48,54,46,35,89,69,28,0.00,40.00,13,5,20,0.00
2013-1-21,73,61,53,56,50,38,85,69,47,0.00,40.00,12,7,20,0.00
2013-1-22,71,61,54,59,52,38,93,72,48,0.00,40.00,11,3,14,0.00
2013-1-23,62,57,52,58,55,50,100,91,84,0.00,40.00,6,2,11,0.00
2013-1-24,72,62,56,58,55,52,95,81,50,0.00,40.00,8,4,13,0.00
2013-1-25,66,60,57,60,56,52,96,84,78,0.00,40.00,10,6,17,0.00
2013-1-26,68,60,57,60,57,54,100,89,72,0.00,40.00,11,9,24,0.22
2013-1-27,60,57,53,60,57,53,100,100,98,0.00,40.00,8,3,23,1.52
2013-1-28,65,58,52,60,55,49,99,90,73,0.00,40.00,11,3,20,0.31
2013-1-29,67,58,52,60,55,52,100,90,72,0.00,40.00,8,2,14,0.01
2013-1-30,67,60,53,61,56,52,99,86,67,0.00,40.00,7,3,13,0.01
2013-1-31,71,62,54,59,53,50,91,75,58,0.00,40.00,12,6,23,0.00
2013-2-1,73,63,55,51,39,20,74,43,19,0.00,40.00,15,7,23,0.00
2013-2-2,71,61,53,58,52,45,95,73,49,0.00,40.00,15,6,24,0.00
2013-2-3,70,60,52,62,50,34,93,70,37,0.00,40.00,12,4,20,0.00
2013-2-4,66,59,54,54,48,38,88,68,51,0.00,40.00,16,10,28,0.00
2013-2-5,63,58,56,58,53,50,88,83,72,0.00,40.00,12,6,21,0.01
2013-2-6,69,60,55,56,53,50,91,80,62,0.00,40.00,14,9,28,0.01
2013-2-7,70,62,58,60,57,54,93,84,66,0.00,40.00,11,6,18,0.00
2013-2-8,70,60,54,62,57,54,100,92,76,0.00,40.00,4,1,8,0.00
2013-2-9,71,60,51,61,52,46,99,77,53,0.00,40.00,8,4,16,0.00
2013-2-10,71,62,56,56,52,46,88,72,45,0.00,40.00,10,6,24,0.00
2013-2-11,69,61,56,62,55,51,90,81,64,0.00,40.00,13,7,29,0.00
2013-2-12,68,58,53,57,52,49,87,81,64,0.00,40.00,13,6,27,0.00
2013-2-13,70,58,52,56,52,48,94,82,60,0.00,40.00,14,4,22,0.00
2013-2-14,67,58,53,58,52,48,89,80,55,0.00,40.00,12,5,22,0.00
2013-2-15,69,60,55,60,53,49,90,78,57,0.00,40.00,9,4,19,0.00
2013-2-16,66,60,57,56,52,44,90,74,54,0.00,40.00,15,8,34,0.01
2013-2-17,65,59,56,55,52,49,88,76,59,0.00,40.00,14,10,39,0.01
2013-2-18,65,59,55,54,50,47,92,73,59,0.00,40.00,17,11,35,0.00
2013-2-19,63,58,55,54,51,48,93,77,58,0.00,40.00,16,8,33,0.01
2013-2-20,66,59,56,59,53,50,94,81,65,0.00,40.00,10,7,24,0.04
2013-2-21,64,58,55,58,54,49,97,87,77,0.00,40.00,7,5,21,0.11
2013-2-22,66,60,57,59,56,54,93,85,73,0.00,40.00,12,8,26,0.04
2013-2-23,67,61,57,58,54,53,93,80,65,0.00,40.00,13,9,31,0.01
2013-2-24,67,60,55,54,52,49,88,75,56,0.00,40.00,12,8,32,0.01
2013-2-25,67,60,56,53,52,49,85,74,53,0.00,40.00,13,8,27,0.00
2013-2-26,68,60,56,55,52,49,89,75,54,0.00,40.00,13,7,26,0.01
2013-2-27,72,61,53,55,50,44,87,69,47,0.00,40.00,12,5,26,0.01
2013-2-28,67,60,55,53,50,47,81,71,49,0.00,40.00,10,5,22,0.00
2013-3-1,66,59,55,53,49,43,79,70,48,0.00,40.00,13,8,31,0.00
2013-3-2,67,60,55,51,50,47,81,69,53,0.00,40.00,12,8,28,0.00
2013-3-3,68,59,54,52,49,44,81,70,52,0.00,40.00,14,7,27,0.00
2013-3-4,69,59,54,53,49,39,84,71,52,0.00,40.00,14,7,30,0.00
2013-3-5,68,59,51,55,50,39,87,74,54,0.00,40.00,14,5,26,0.00
2013-3-6,68,58,50,58,53,49,98,85,65,0.00,40.00,5,1,11,0.00
2013-3-7,65,56,50,58,52,50,100,89,66,0.00,40.00,3,1,9,0.00
2013-3-8,67,58,52,58,54,50,100,87,66,0.00,40.00,7,3,24,0.41
2013-3-9,59,57,57,58,57,56,100,100,91,0.00,40.00,7,5,19,0.96
2013-3-10,67,58,53,59,54,49,100,87,56,0.00,40.00,6,3,15,0.27
2013-3-11,60,55,50,55,52,49,99,91,76,0.00,40.00,2,1,10,0.00
2013-3-12,69,57,49,55,50,48,98,80,51,0.00,40.00,4,2,15,0.00
2013-3-13,65,55,48,54,50,47,100,85,60,0.00,40.00,4,2,12,0.00
2013-3-14,68,56,50,53,50,48,99,83,57,0.00,40.00,4,1,13,0.00
2013-3-15,60,54,51,58,54,51,100,97,81,0.00,40.00,6,3,17,0.54
2013-3-16,63,54,48,57,51,48,100,92,66,0.00,40.00,4,2,12,0.33
2013-3-17,63,53,47,56,50,42,100,91,66,0.00,40.00,7,3,13,0.25
2013-3-18,66,55,48,52,49,45,100,81,53,0.00,40.00,7,2,12,0.01
2013-3-19,67,57,48,60,50,44,96,78,55,0.00,40.00,6,2,15,0.01
2013-3-20,69,60,52,58,54,47,99,83,58,0.00,40.00,8,5,17,0.00
2013-3-21,63,60,56,61,56,48,100,88,65,0.00,40.00,14,9,24,0.18
2013-3-22,72,62,57,65,60,57,100,93,71,0.00,40.00,6,2,14,0.47
2013-3-23,65,59,55,61,56,54,98,90,77,0.00,40.00,9,4,15,0.04
2013-3-24,66,60,56,61,56,51,97,88,66,0.00,40.00,8,3,14,0.19
2013-3-25,70,62,57,62,59,56,99,91,74,0.00,40.00,8,3,14,0.06
2013-3-26,67,61,57,63,60,57,100,97,87,0.00,40.00,8,4,15,0.64
2013-3-27,63,59,57,59,58,56,100,95,83,0.00,40.00,13,6,26,0.66
2013-3-28,68,62,58,59,56,53,92,79,72,0.00,40.00,10,7,19,0.01
2013-3-29,67,59,55,61,56,52,100,91,71,0.00,40.00,10,4,17,0.32
2013-3-30,65,57,50,61,53,-100,100,91,79,0.00,40.00,12,5,26,0.13
2013-3-31,63,54,48,52,49,46,98,86,64,0.00,40.00,9,3,21,0.01
2013-4-1,59,53,50,56,51,47,100,96,76,0.00,40.00,5,3,18,0.31
2013-4-2,63,54,49,53,51,47,100,87,69,0.00,40.00,6,2,12,0.03
2013-4-3,63,55,47,55,50,45,98,84,62,0.00,40.00,7,3,11,0.00
2013-4-4,71,59,48,58,53,47,100,82,58,0.00,40.00,7,2,12,0.00
2013-4-5,70,60,52,62,56,51,100,86,64,0.00,40.00,4,1,10,0.00
2013-4-6,75,65,54,61,56,51,95,75,56,0.00,40.00,9,5,14,0.00
2013-4-7,77,64,55,64,58,53,100,83,55,0.00,40.00,7,2,13,0.00
2013-4-8,76,64,56,65,58,51,96,82,51,0.00,40.00,6,2,13,0.00
2013-4-9,72,62,53,61,56,51,100,83,58,0.00,40.00,6,2,11,0.00
2013-4-10,71,63,57,61,57,52,97,81,59,0.00,40.00,8,3,15,0.00
2013-4-11,72,63,55,61,59,53,98,86,63,0.00,40.00,11,5,19,0.00
2013-4-12,64,61,59,64,60,57,100,97,91,0.00,40.00,14,8,25,0.17
2013-4-13,62,60,58,61,59,56,100,97,87,0.00,40.00,18,10,32,1.28
2013-4-14,66,61,55,63,59,52,100,93,73,0.00,40.00,5,3,13,0.55
2013-4-15,66,61,55,65,59,53,100,96,84,0.00,40.00,5,1,10,0.13
2013-4-16,67,62,58,63,61,58,100,95,86,0.00,40.00,6,3,14,0.02
2013-4-17,71,63,56,64,59,55,100,89,63,0.00,40.00,8,2,12,0.01
2013-4-18,71,62,56,62,58,55,100,87,66,0.00,40.00,6,2,15,0.01
2013-4-19,72,63,58,65,58,54,100,85,58,0.00,40.00,10,4,20,0.35
2013-4-20,70,63,59,62,59,56,99,89,70,0.00,40.00,10,4,14,0.21
2013-4-21,66,61,58,62,60,56,100,95,79,0.00,40.00,4,2,12,0.76
2013-4-22,62,60,57,62,60,57,100,99,93,0.00,40.00,12,3,18,0.99
2013-4-23,68,62,58,65,60,57,100,94,71,0.00,40.00,3,1,13,0.42
2013-4-24,72,64,57,65,60,57,100,89,71,0.00,40.00,3,1,10,0.02
2013-4-25,74,64,57,65,60,56,100,90,73,0.00,40.00,6,2,11,0.04
2013-4-26,73,64,57,63,58,52,98,82,57,0.00,40.00,8,3,15,0.02
2013-4-27,72,62,54,61,57,52,98,82,61,0.00,40.00,11,3,19,0.00
2013-4-28,65,62,60,63,61,58,100,96,89,0.00,40.00,12,8,27,0.63
2013-4-29,70,64,61,63,61,59,100,93,73,0.00,40.00,11,5,22,0.37
2013-4-30,67,64,61,66,63,61,100,98,90,0.00,40.00,6,2,10,0.46
2013-5-1,71,64,59,67,62,58,100,94,78,0.00,40.00,7,2,10,0.10
2013-5-2,68,63,58,65,60,56,100,91,75,0.00,40.00,8,3,13,0.28
2013-5-3,67,63,59,66,62,59,100,98,89,0.00,40.00,2,0,7,0.27
2013-5-4,66,62,60,65,62,60,100,99,95,0.00,40.00,6,1,10,0.58
2013-5-5,71,64,58,66,61,55,100,92,67,0.00,40.00,3,1,10,0.27
2013-5-6,73,62,54,57,54,51,100,80,53,0.00,40.00,5,2,12,0.02
2013-5-7,71,61,52,60,55,50,99,84,54,0.00,40.00,5,2,10,0.00
2013-5-8,69,61,54,65,59,53,100,93,81,0.00,40.00,4,1,9,0.00
2013-5-9,71,63,57,63,59,57,100,89,73,0.00,40.00,4,1,10,0.00
2013-5-10,70,62,57,62,55,-100,100,87,71,0.00,40.00,7,2,13,0.00
2013-5-11,69,60,55,61,54,-100,98,84,64,0.00,40.00,8,6,17,0.00
2013-5-12,71,63,56,61,57,52,94,82,64,0.00,40.00,10,5,20,0.00
2013-5-13,71,64,59,67,62,58,100,95,86,0.00,40.00,10,3,20,0.48
2013-5-14,74,66,60,65,61,56,100,86,68,0.00,40.00,9,3,21,0.01
2013-5-15,74,67,61,60,58,56,87,74,55,0.00,40.00,11,6,21,0.00
2013-5-16,74,62,60,60,41,-100,91,73,50,0.00,40.00,9,4,19,0.00
2013-5-17,74,65,58,62,55,-100,91,76,51,0.00,40.00,9,4,17,0.00
2013-5-18,74,65,56,65,58,53,95,78,60,0.00,40.00,9,4,19,0.00
2013-5-19,76,63,56,63,56,52,93,79,59,0.00,40.00,8,3,16,0.01
2013-5-20,68,58,52,61,54,44,99,86,68,0.00,40.00,7,3,14,0.39
2013-5-21,65,60,54,63,57,52,100,91,74,0.00,40.00,7,1,11,0.08
2013-5-22,72,63,56,61,58,55,100,83,62,0.00,40.00,7,3,12,0.02
2013-5-23,72,64,58,66,60,56,98,87,58,0.00,40.00,6,2,12,0.06
2013-5-24,75,66,60,65,60,55,99,80,58,0.00,40.00,10,5,21,0.10
2013-5-25,75,67,62,61,59,56,91,76,58,0.00,40.00,10,6,22,0.02
2013-5-26,76,66,61,64,57,54,87,73,52,0.00,40.00,11,7,22,0.00
2013-5-27,74,64,57,65,59,55,98,84,65,0.00,40.00,9,4,15,0.26
2013-5-28,71,62,57,63,58,54,100,88,63,0.00,40.00,9,3,14,0.60
2013-5-29,72,64,58,65,62,57,100,91,77,0.00,40.00,6,2,10,0.03
2013-5-30,70,64,59,66,62,58,100,93,74,0.00,40.00,4,1,10,0.00
2013-5-31,76,66,59,69,63,59,100,91,65,0.00,40.00,4,1,11,0.00
2013-6-1,73,66,60,67,63,59,100,89,64,0.00,40.00,5,2,13,0.00
2013-6-2,78,69,60,65,60,55,95,75,55,0.00,40.00,12,6,21,0.00
2013-6-3,79,68,61,64,57,54,87,70,49,0.00,40.00,11,5,21,0.00
2013-6-4,76,67,59,64,59,54,90,76,62,0.00,40.00,12,3,23,0.00
2013-6-5,76,66,57,64,57,54,92,73,49,0.00,40.00,11,5,23,0.00
2013-6-6,74,66,60,60,56,54,87,73,52,0.00,40.00,10,5,23,0.00
2013-6-7,72,64,59,60,56,52,89,75,56,0.00,40.00,11,5,22,0.00
2013-6-8,75,66,61,59,56,55,86,73,50,0.00,40.00,10,5,20,0.00
2013-6-9,74,66,61,64,57,54,85,75,56,0.00,40.00,9,6,19,0.00
2013-6-10,77,66,61,62,58,56,91,75,56,0.00,40.00,7,4,19,0.00
2013-6-11,74,66,62,64,60,57,93,83,63,0.00,40.00,8,4,17,0.00
2013-6-12,76,67,60,64,58,52,100,77,44,0.00,40.00,11,5,22,0.02
2013-6-13,74,66,62,61,58,56,94,77,60,0.00,40.00,9,6,24,0.02
2013-6-14,74,66,61,60,57,53,93,73,50,0.00,40.00,13,7,24,0.02
2013-6-15,72,66,60,60,57,53,83,74,59,0.00,40.00,10,6,21,0.00
2013-6-16,75,66,58,64,58,53,96,76,59,0.00,40.00,10,3,21,0.00
2013-6-17,74,66,60,63,58,56,89,78,59,0.00,40.00,9,4,18,0.00
2013-6-18,72,66,62,63,59,56,89,80,65,0.00,40.00,9,6,17,0.00
2013-6-19,73,66,62,68,59,55,96,79,59,0.00,40.00,9,5,18,0.01